sensor_id;sensor_type;location;lat;lon;timestamp;pressure;altitude;pressure_sealevel;temperature;humidity
23427;BME280;41148;45.420;10.952;2023-06-22T00:01:48;100968.53;;;25.36;59.51
23427;BME280;41148;45.420;10.952;2023-06-22T00:04:16;100973.69;;;25.51;58.68
23427;BME280;41148;45.420;10.952;2023-06-22T00:06:43;100977.72;;;25.56;58.78
23427;BME280;41148;45.420;10.952;2023-06-22T00:09:11;100975.75;;;25.58;58.69
23427;BME280;41148;45.420;10.952;2023-06-22T00:11:38;100978.59;;;25.57;58.54
23427;BME280;41148;45.420;10.952;2023-06-22T00:14:06;100979.78;;;25.64;58.25
23427;BME280;41148;45.420;10.952;2023-06-22T00:16:33;100979.66;;;25.65;58.35
23427;BME280;41148;45.420;10.952;2023-06-22T00:19:01;100982.09;;;25.80;58.08
23427;BME280;41148;45.420;10.952;2023-06-22T00:21:29;100983.13;;;25.67;58.14
23427;BME280;41148;45.420;10.952;2023-06-22T00:23:58;100983.31;;;25.55;58.97
23427;BME280;41148;45.420;10.952;2023-06-22T00:26:25;100991.66;;;25.74;58.47
23427;BME280;41148;45.420;10.952;2023-06-22T00:28:53;100973.84;;;25.70;58.57
23427;BME280;41148;45.420;10.952;2023-06-22T00:31:20;100978.75;;;25.76;58.77
23427;BME280;41148;45.420;10.952;2023-06-22T00:33:47;100968.50;;;25.68;58.70
23427;BME280;41148;45.420;10.952;2023-06-22T00:36:17;100969.84;;;25.74;58.98
23427;BME280;41148;45.420;10.952;2023-06-22T00:38:46;100962.34;;;25.55;59.35
23427;BME280;41148;45.420;10.952;2023-06-22T00:41:13;100970.88;;;25.41;59.93
23427;BME280;41148;45.420;10.952;2023-06-22T00:43:41;100966.00;;;25.24;60.75
23427;BME280;41148;45.420;10.952;2023-06-22T00:46:09;100960.06;;;25.19;60.86
23427;BME280;41148;45.420;10.952;2023-06-22T00:48:37;100960.81;;;25.21;60.96
23427;BME280;41148;45.420;10.952;2023-06-22T00:51:04;100961.06;;;25.18;61.02
23427;BME280;41148;45.420;10.952;2023-06-22T00:53:32;100958.31;;;25.18;60.85
23427;BME280;41148;45.420;10.952;2023-06-22T00:56:03;100948.03;;;25.21;60.80
23427;BME280;41148;45.420;10.952;2023-06-22T00:58:31;100961.34;;;25.35;61.04
23427;BME280;41148;45.420;10.952;2023-06-22T01:00:59;100957.81;;;25.24;61.30
23427;BME280;41148;45.420;10.952;2023-06-22T01:03:27;100960.88;;;25.30;61.61
23427;BME280;41148;45.420;10.952;2023-06-22T01:06:02;100965.59;;;25.28;61.58
23427;BME280;41148;45.420;10.952;2023-06-22T01:08:51;100952.50;;;25.22;61.42
23427;BME280;41148;45.420;10.952;2023-06-22T01:11:27;100960.59;;;25.01;61.50
23427;BME280;41148;45.420;10.952;2023-06-22T01:14:04;100952.69;;;24.87;61.96
23427;BME280;41148;45.420;10.952;2023-06-22T01:16:35;100954.56;;;24.87;62.29
23427;BME280;41148;45.420;10.952;2023-06-22T01:21:58;100952.47;;;24.90;61.76
23427;BME280;41148;45.420;10.952;2023-06-22T01:29:40;100967.47;;;24.84;62.55
23427;BME280;41148;45.420;10.952;2023-06-22T01:32:08;100963.97;;;24.94;61.96
23427;BME280;41148;45.420;10.952;2023-06-22T01:34:38;100962.25;;;24.93;61.54
23427;BME280;41148;45.420;10.952;2023-06-22T01:37:08;100961.75;;;24.88;61.88
23427;BME280;41148;45.420;10.952;2023-06-22T01:39:37;100967.22;;;24.76;62.43
23427;BME280;41148;45.420;10.952;2023-06-22T01:42:05;100959.44;;;24.72;62.51
23427;BME280;41148;45.420;10.952;2023-06-22T01:44:34;100970.31;;;24.83;62.35
23427;BME280;41148;45.420;10.952;2023-06-22T01:47:01;100963.63;;;24.76;61.73
23427;BME280;41148;45.420;10.952;2023-06-22T01:49:29;100964.25;;;24.68;62.21
23427;BME280;41148;45.420;10.952;2023-06-22T01:51:57;100954.91;;;24.61;62.52
23427;BME280;41148;45.420;10.952;2023-06-22T01:54:25;100976.16;;;24.67;62.35
23427;BME280;41148;45.420;10.952;2023-06-22T01:56:54;100952.28;;;24.60;62.97
23427;BME280;41148;45.420;10.952;2023-06-22T01:59:35;100968.13;;;24.54;63.00
23427;BME280;41148;45.420;10.952;2023-06-22T02:02:06;100969.00;;;24.55;62.87
23427;BME280;41148;45.420;10.952;2023-06-22T02:04:46;100974.06;;;24.60;62.69
23427;BME280;41148;45.420;10.952;2023-06-22T02:07:17;100970.56;;;24.69;62.19
23427;BME280;41148;45.420;10.952;2023-06-22T02:09:49;100981.75;;;24.66;62.14
23427;BME280;41148;45.420;10.952;2023-06-22T02:12:22;100969.25;;;24.63;62.36
23427;BME280;41148;45.420;10.952;2023-06-22T02:14:52;100973.84;;;24.63;62.50
23427;BME280;41148;45.420;10.952;2023-06-22T02:17:25;100978.50;;;24.61;62.43
23427;BME280;41148;45.420;10.952;2023-06-22T02:19:53;100978.03;;;24.55;62.65
23427;BME280;41148;45.420;10.952;2023-06-22T02:22:21;100973.47;;;24.45;63.13
23427;BME280;41148;45.420;10.952;2023-06-22T02:24:48;100991.28;;;24.49;63.26
23427;BME280;41148;45.420;10.952;2023-06-22T02:27:16;100968.28;;;24.42;63.40
23427;BME280;41148;45.420;10.952;2023-06-22T02:29:43;100985.22;;;24.45;63.38
23427;BME280;41148;45.420;10.952;2023-06-22T02:32:11;100970.47;;;24.25;63.95
23427;BME280;41148;45.420;10.952;2023-06-22T02:34:39;100988.53;;;24.26;64.06
23427;BME280;41148;45.420;10.952;2023-06-22T02:37:06;100987.94;;;24.23;64.15
23427;BME280;41148;45.420;10.952;2023-06-22T02:39:34;100981.66;;;24.34;63.72
23427;BME280;41148;45.420;10.952;2023-06-22T02:42:02;100992.00;;;24.28;63.69
23427;BME280;41148;45.420;10.952;2023-06-22T02:44:29;100985.09;;;24.13;64.05
23427;BME280;41148;45.420;10.952;2023-06-22T02:46:57;100988.53;;;24.04;64.67
23427;BME280;41148;45.420;10.952;2023-06-22T02:49:25;100986.03;;;23.90;64.54
23427;BME280;41148;45.420;10.952;2023-06-22T02:51:53;100988.28;;;23.85;64.45
23427;BME280;41148;45.420;10.952;2023-06-22T02:54:21;100988.41;;;23.94;64.13
23427;BME280;41148;45.420;10.952;2023-06-22T02:57:10;100990.13;;;23.84;64.00
23427;BME280;41148;45.420;10.952;2023-06-22T02:59:42;100993.59;;;23.86;64.40
23427;BME280;41148;45.420;10.952;2023-06-22T03:02:11;100999.50;;;23.80;64.55
23427;BME280;41148;45.420;10.952;2023-06-22T03:04:40;100994.19;;;23.79;64.87
23427;BME280;41148;45.420;10.952;2023-06-22T03:07:07;100999.63;;;23.79;64.78
23427;BME280;41148;45.420;10.952;2023-06-22T03:09:35;100992.59;;;23.87;64.51
23427;BME280;41148;45.420;10.952;2023-06-22T03:12:02;100998.28;;;23.84;64.55
23427;BME280;41148;45.420;10.952;2023-06-22T03:14:42;100983.31;;;23.79;64.44
23427;BME280;41148;45.420;10.952;2023-06-22T03:17:09;100993.44;;;23.77;64.78
23427;BME280;41148;45.420;10.952;2023-06-22T03:19:38;100997.03;;;23.77;64.90
23427;BME280;41148;45.420;10.952;2023-06-22T03:22:05;100987.75;;;23.80;64.87
23427;BME280;41148;45.420;10.952;2023-06-22T03:24:34;100996.91;;;23.90;64.71
23427;BME280;41148;45.420;10.952;2023-06-22T03:27:04;100995.72;;;23.94;64.70
23427;BME280;41148;45.420;10.952;2023-06-22T03:29:34;100998.91;;;23.99;64.45
23427;BME280;41148;45.420;10.952;2023-06-22T03:32:01;100995.06;;;23.90;64.90
23427;BME280;41148;45.420;10.952;2023-06-22T03:34:30;100993.94;;;23.93;64.95
23427;BME280;41148;45.420;10.952;2023-06-22T03:37:00;100989.88;;;23.98;64.67
23427;BME280;41148;45.420;10.952;2023-06-22T03:39:28;100976.03;;;24.02;64.67
23427;BME280;41148;45.420;10.952;2023-06-22T03:41:57;100988.88;;;23.99;64.60
23427;BME280;41148;45.420;10.952;2023-06-22T03:44:24;101000.16;;;24.06;64.21
23427;BME280;41148;45.420;10.952;2023-06-22T03:46:52;101001.16;;;23.94;64.34
23427;BME280;41148;45.420;10.952;2023-06-22T03:49:20;100996.56;;;23.94;64.49
23427;BME280;41148;45.420;10.952;2023-06-22T03:51:47;101005.22;;;23.99;64.60
23427;BME280;41148;45.420;10.952;2023-06-22T03:54:15;100992.72;;;23.86;65.03
23427;BME280;41148;45.420;10.952;2023-06-22T03:56:42;100992.72;;;23.86;65.38
23427;BME280;41148;45.420;10.952;2023-06-22T03:59:10;100987.50;;;23.83;65.67
23427;BME280;41148;45.420;10.952;2023-06-22T04:01:37;100990.47;;;23.91;65.80
23427;BME280;41148;45.420;10.952;2023-06-22T04:04:05;100982.56;;;23.88;65.59
23427;BME280;41148;45.420;10.952;2023-06-22T04:06:33;100993.72;;;23.96;65.64
23427;BME280;41148;45.420;10.952;2023-06-22T04:09:02;100999.66;;;24.01;65.58
23427;BME280;41148;45.420;10.952;2023-06-22T04:11:29;100979.25;;;23.95;65.14
23427;BME280;41148;45.420;10.952;2023-06-22T04:13:57;100990.75;;;23.99;65.02
23427;BME280;41148;45.420;10.952;2023-06-22T04:16:24;100984.44;;;23.98;64.82
23427;BME280;41148;45.420;10.952;2023-06-22T04:21:44;100977.53;;;23.94;65.33
23427;BME280;41148;45.420;10.952;2023-06-22T04:24:11;100969.84;;;23.99;64.89
23427;BME280;41148;45.420;10.952;2023-06-22T04:26:39;100985.81;;;24.15;64.28
23427;BME280;41148;45.420;10.952;2023-06-22T04:29:08;100981.38;;;24.03;64.98
23427;BME280;41148;45.420;10.952;2023-06-22T04:31:36;100973.69;;;23.97;65.38
23427;BME280;41148;45.420;10.952;2023-06-22T04:34:06;100967.13;;;23.99;65.19
23427;BME280;41148;45.420;10.952;2023-06-22T04:36:38;100978.28;;;24.08;64.99
23427;BME280;41148;45.420;10.952;2023-06-22T04:39:10;100966.25;;;23.99;65.30
23427;BME280;41148;45.420;10.952;2023-06-22T04:41:40;100977.28;;;24.09;65.37
23427;BME280;41148;45.420;10.952;2023-06-22T04:44:14;100983.31;;;24.12;65.13
23427;BME280;41148;45.420;10.952;2023-06-22T04:46:52;100986.94;;;24.13;65.30
23427;BME280;41148;45.420;10.952;2023-06-22T04:49:36;100975.53;;;24.08;65.94
23427;BME280;41148;45.420;10.952;2023-06-22T04:52:06;100973.06;;;24.16;65.38
23427;BME280;41148;45.420;10.952;2023-06-22T04:54:35;100974.31;;;24.23;65.20
23427;BME280;41148;45.420;10.952;2023-06-22T04:57:06;100968.75;;;24.24;65.22
23427;BME280;41148;45.420;10.952;2023-06-22T04:59:38;100977.41;;;24.30;65.20
23427;BME280;41148;45.420;10.952;2023-06-22T05:02:09;100968.25;;;24.31;65.18
23427;BME280;41148;45.420;10.952;2023-06-22T05:04:37;100964.66;;;24.30;65.10
23427;BME280;41148;45.420;10.952;2023-06-22T05:07:07;100991.91;;;24.41;65.31
23427;BME280;41148;45.420;10.952;2023-06-22T05:09:34;100983.13;;;24.38;65.10
23427;BME280;41148;45.420;10.952;2023-06-22T05:12:02;100990.94;;;24.53;64.38
23427;BME280;41148;45.420;10.952;2023-06-22T05:14:33;100976.94;;;24.47;64.85
23427;BME280;41148;45.420;10.952;2023-06-22T05:17:01;100982.25;;;24.48;65.15
23427;BME280;41148;45.420;10.952;2023-06-22T05:19:31;100975.81;;;24.49;64.95
23427;BME280;41148;45.420;10.952;2023-06-22T05:22:01;100974.31;;;24.57;65.28
23427;BME280;41148;45.420;10.952;2023-06-22T05:24:29;100971.09;;;24.63;65.19
23427;BME280;41148;45.420;10.952;2023-06-22T05:26:56;100978.00;;;24.78;64.93
23427;BME280;41148;45.420;10.952;2023-06-22T05:29:24;100966.63;;;24.73;65.01
23427;BME280;41148;45.420;10.952;2023-06-22T05:31:51;100980.19;;;24.95;64.77
23427;BME280;41148;45.420;10.952;2023-06-22T05:34:19;100979.69;;;25.13;63.34
23427;BME280;41148;45.420;10.952;2023-06-22T05:36:46;100982.66;;;25.09;63.13
23427;BME280;41148;45.420;10.952;2023-06-22T05:39:14;100975.84;;;25.04;63.63
23427;BME280;41148;45.420;10.952;2023-06-22T05:41:43;100985.47;;;25.19;63.75
23427;BME280;41148;45.420;10.952;2023-06-22T05:44:10;100970.94;;;25.30;63.08
23427;BME280;41148;45.420;10.952;2023-06-22T05:46:43;100973.84;;;25.38;63.06
23427;BME280;41148;45.420;10.952;2023-06-22T05:49:17;100968.59;;;25.46;61.80
23427;BME280;41148;45.420;10.952;2023-06-22T05:51:45;100980.78;;;25.63;62.69
23427;BME280;41148;45.420;10.952;2023-06-22T05:54:13;100975.91;;;25.78;61.49
23427;BME280;41148;45.420;10.952;2023-06-22T05:56:43;100972.41;;;26.17;60.28
23427;BME280;41148;45.420;10.952;2023-06-22T05:59:10;100976.91;;;26.28;58.51
23427;BME280;41148;45.420;10.952;2023-06-22T06:01:39;100966.97;;;26.27;58.87
23427;BME280;41148;45.420;10.952;2023-06-22T06:04:07;100968.03;;;26.36;59.84
23427;BME280;41148;45.420;10.952;2023-06-22T06:06:38;100962.09;;;26.31;60.14
23427;BME280;41148;45.420;10.952;2023-06-22T06:09:05;100957.06;;;26.26;60.21
23427;BME280;41148;45.420;10.952;2023-06-22T06:11:35;100968.56;;;26.30;60.32
23427;BME280;41148;45.420;10.952;2023-06-22T06:14:03;100969.91;;;26.35;59.91
23427;BME280;41148;45.420;10.952;2023-06-22T06:16:33;100968.88;;;26.36;60.04
23427;BME280;41148;45.420;10.952;2023-06-22T06:19:00;100970.75;;;26.36;59.95
23427;BME280;41148;45.420;10.952;2023-06-22T06:21:28;100978.84;;;26.37;60.08
23427;BME280;41148;45.420;10.952;2023-06-22T06:23:57;100978.94;;;26.36;60.04
23427;BME280;41148;45.420;10.952;2023-06-22T06:26:25;100971.22;;;26.41;59.81
23427;BME280;41148;45.420;10.952;2023-06-22T06:28:57;100975.09;;;26.38;60.07
23427;BME280;41148;45.420;10.952;2023-06-22T06:31:28;100973.97;;;26.41;60.43
23427;BME280;41148;45.420;10.952;2023-06-22T06:33:57;100973.81;;;26.42;60.55
23427;BME280;41148;45.420;10.952;2023-06-22T06:36:24;100966.38;;;26.44;61.32
23427;BME280;41148;45.420;10.952;2023-06-22T06:38:52;100960.00;;;26.44;61.93
23427;BME280;41148;45.420;10.952;2023-06-22T06:41:19;100973.84;;;26.52;61.90
23427;BME280;41148;45.420;10.952;2023-06-22T06:43:48;100980.94;;;26.55;61.84
23427;BME280;41148;45.420;10.952;2023-06-22T06:46:16;100974.84;;;26.51;62.58
23427;BME280;41148;45.420;10.952;2023-06-22T06:48:46;100969.53;;;26.49;63.29
23427;BME280;41148;45.420;10.952;2023-06-22T06:51:13;100984.53;;;26.55;63.10
23427;BME280;41148;45.420;10.952;2023-06-22T06:53:41;100990.41;;;26.60;63.06
23427;BME280;41148;45.420;10.952;2023-06-22T06:56:09;100983.69;;;26.64;63.12
23427;BME280;41148;45.420;10.952;2023-06-22T06:58:41;100982.25;;;26.70;63.48
23427;BME280;41148;45.420;10.952;2023-06-22T07:01:09;100980.53;;;26.78;63.04
23427;BME280;41148;45.420;10.952;2023-06-22T07:03:37;100972.81;;;26.84;63.40
23427;BME280;41148;45.420;10.952;2023-06-22T07:06:06;100971.97;;;26.93;62.91
23427;BME280;41148;45.420;10.952;2023-06-22T07:08:33;100966.19;;;26.96;62.50
23427;BME280;41148;45.420;10.952;2023-06-22T07:11:05;100962.88;;;27.02;62.86
23427;BME280;41148;45.420;10.952;2023-06-22T07:13:36;100955.72;;;27.10;62.82
23427;BME280;41148;45.420;10.952;2023-06-22T07:16:04;100961.19;;;27.10;62.62
23427;BME280;41148;45.420;10.952;2023-06-22T07:18:31;100949.69;;;27.07;61.97
23427;BME280;41148;45.420;10.952;2023-06-22T07:20:59;100952.41;;;27.07;61.88
23427;BME280;41148;45.420;10.952;2023-06-22T07:23:26;100961.19;;;27.20;61.82
23427;BME280;41148;45.420;10.952;2023-06-22T07:25:54;100962.91;;;27.31;61.31
23427;BME280;41148;45.420;10.952;2023-06-22T07:28:22;100961.34;;;27.38;61.17
23427;BME280;41148;45.420;10.952;2023-06-22T07:30:49;100964.66;;;27.42;61.38
23427;BME280;41148;45.420;10.952;2023-06-22T07:33:18;100966.66;;;27.49;61.25
23427;BME280;41148;45.420;10.952;2023-06-22T07:35:47;100967.41;;;27.51;61.11
23427;BME280;41148;45.420;10.952;2023-06-22T07:38:15;100966.94;;;27.56;61.66
23427;BME280;41148;45.420;10.952;2023-06-22T07:40:43;100960.16;;;27.60;61.60
23427;BME280;41148;45.420;10.952;2023-06-22T07:43:11;100956.13;;;27.64;60.81
23427;BME280;41148;45.420;10.952;2023-06-22T07:45:39;100956.47;;;27.71;60.28
23427;BME280;41148;45.420;10.952;2023-06-22T07:48:07;100957.28;;;27.81;59.13
23427;BME280;41148;45.420;10.952;2023-06-22T07:50:35;100962.31;;;27.85;58.75
23427;BME280;41148;45.420;10.952;2023-06-22T07:53:02;100959.69;;;27.93;56.61
23427;BME280;41148;45.420;10.952;2023-06-22T07:55:30;100959.38;;;28.06;55.21
23427;BME280;41148;45.420;10.952;2023-06-22T07:57:58;100961.22;;;28.15;54.39
23427;BME280;41148;45.420;10.952;2023-06-22T08:00:25;100965.78;;;28.24;55.42
23427;BME280;41148;45.420;10.952;2023-06-22T08:02:53;100963.16;;;28.42;54.68
23427;BME280;41148;45.420;10.952;2023-06-22T08:05:22;100960.97;;;28.46;54.10
23427;BME280;41148;45.420;10.952;2023-06-22T08:07:49;100958.41;;;28.35;54.36
23427;BME280;41148;45.420;10.952;2023-06-22T08:10:18;100958.53;;;28.43;54.44
23427;BME280;41148;45.420;10.952;2023-06-22T08:12:46;100966.81;;;28.61;53.92
23427;BME280;41148;45.420;10.952;2023-06-22T08:15:14;100967.78;;;28.69;53.52
23427;BME280;41148;45.420;10.952;2023-06-22T08:17:41;100967.69;;;28.89;53.10
23427;BME280;41148;45.420;10.952;2023-06-22T08:20:09;100970.41;;;28.89;53.36
23427;BME280;41148;45.420;10.952;2023-06-22T08:22:40;100969.69;;;28.87;51.82
23427;BME280;41148;45.420;10.952;2023-06-22T08:25:08;100973.88;;;29.08;51.78
23427;BME280;41148;45.420;10.952;2023-06-22T08:27:36;100970.13;;;29.27;51.59
23427;BME280;41148;45.420;10.952;2023-06-22T08:30:05;100969.56;;;29.42;51.05
23427;BME280;41148;45.420;10.952;2023-06-22T08:32:33;100962.13;;;29.52;50.81
23427;BME280;41148;45.420;10.952;2023-06-22T08:35:07;100958.13;;;29.64;50.50
23427;BME280;41148;45.420;10.952;2023-06-22T08:37:37;100956.69;;;29.78;49.84
23427;BME280;41148;45.420;10.952;2023-06-22T08:40:09;100953.25;;;29.76;50.07
23427;BME280;41148;45.420;10.952;2023-06-22T08:42:40;100963.44;;;29.83;50.44
23427;BME280;41148;45.420;10.952;2023-06-22T08:45:08;100949.94;;;29.72;50.41
23427;BME280;41148;45.420;10.952;2023-06-22T08:47:36;100960.03;;;29.63;50.51
23427;BME280;41148;45.420;10.952;2023-06-22T08:50:05;100955.53;;;29.62;51.56
23427;BME280;41148;45.420;10.952;2023-06-22T08:52:34;100963.84;;;29.53;51.27
23427;BME280;41148;45.420;10.952;2023-06-22T08:55:02;100959.31;;;29.44;51.26
23427;BME280;41148;45.420;10.952;2023-06-22T08:57:31;100962.44;;;29.67;50.95
23427;BME280;41148;45.420;10.952;2023-06-22T09:00:00;100959.94;;;29.81;50.92
23427;BME280;41148;45.420;10.952;2023-06-22T09:02:31;100956.34;;;29.81;50.76
23427;BME280;41148;45.420;10.952;2023-06-22T09:04:59;100949.53;;;29.85;50.41
23427;BME280;41148;45.420;10.952;2023-06-22T09:07:27;100951.41;;;29.84;50.24
23427;BME280;41148;45.420;10.952;2023-06-22T09:09:55;100953.75;;;29.79;49.63
23427;BME280;41148;45.420;10.952;2023-06-22T09:12:29;100950.91;;;29.89;49.48
23427;BME280;41148;45.420;10.952;2023-06-22T09:15:01;100941.28;;;29.85;50.18
23427;BME280;41148;45.420;10.952;2023-06-22T09:17:31;100946.81;;;30.19;49.12
23427;BME280;41148;45.420;10.952;2023-06-22T09:19:59;100940.50;;;30.27;49.42
23427;BME280;41148;45.420;10.952;2023-06-22T09:22:28;100944.72;;;30.47;49.06
23427;BME280;41148;45.420;10.952;2023-06-22T09:24:56;100939.00;;;30.74;47.69
23427;BME280;41148;45.420;10.952;2023-06-22T09:27:24;100938.13;;;30.66;48.02
23427;BME280;41148;45.420;10.952;2023-06-22T09:29:56;100933.03;;;30.79;48.33
23427;BME280;41148;45.420;10.952;2023-06-22T09:32:25;100937.88;;;31.01;48.31
23427;BME280;41148;45.420;10.952;2023-06-22T09:34:53;100931.84;;;31.14;48.46
23427;BME280;41148;45.420;10.952;2023-06-22T09:37:21;100931.19;;;31.45;46.46
23427;BME280;41148;45.420;10.952;2023-06-22T09:39:49;100925.88;;;31.35;45.67
23427;BME280;41148;45.420;10.952;2023-06-22T09:42:17;100919.31;;;31.20;46.66
23427;BME280;41148;45.420;10.952;2023-06-22T09:44:45;100928.63;;;31.43;44.17
23427;BME280;41148;45.420;10.952;2023-06-22T09:47:12;100922.44;;;31.57;45.05
23427;BME280;41148;45.420;10.952;2023-06-22T09:49:43;100916.03;;;31.73;44.05
23427;BME280;41148;45.420;10.952;2023-06-22T09:52:15;100907.81;;;31.57;43.51
23427;BME280;41148;45.420;10.952;2023-06-22T09:54:43;100904.88;;;31.58;43.43
23427;BME280;41148;45.420;10.952;2023-06-22T09:57:10;100887.69;;;31.48;43.57
23427;BME280;41148;45.420;10.952;2023-06-22T09:59:38;100883.16;;;31.72;43.53
23427;BME280;41148;45.420;10.952;2023-06-22T10:02:07;100894.38;;;31.78;43.08
23427;BME280;41148;45.420;10.952;2023-06-22T10:04:35;100877.47;;;31.89;42.30
23427;BME280;41148;45.420;10.952;2023-06-22T10:07:04;100864.72;;;31.97;42.13
23427;BME280;41148;45.420;10.952;2023-06-22T10:09:32;100879.38;;;31.81;41.48
23427;BME280;41148;45.420;10.952;2023-06-22T10:12:00;100865.81;;;31.55;41.69
23427;BME280;41148;45.420;10.952;2023-06-22T10:14:27;100865.47;;;31.50;40.98
23427;BME280;41148;45.420;10.952;2023-06-22T10:16:56;100861.50;;;31.60;40.20
23427;BME280;41148;45.420;10.952;2023-06-22T10:19:26;100850.66;;;31.75;39.81
23427;BME280;41148;45.420;10.952;2023-06-22T10:21:54;100854.94;;;31.70;40.74
23427;BME280;41148;45.420;10.952;2023-06-22T10:24:23;100859.03;;;31.90;41.05
23427;BME280;41148;45.420;10.952;2023-06-22T10:26:50;100858.66;;;31.93;41.20
23427;BME280;41148;45.420;10.952;2023-06-22T10:29:19;100863.66;;;31.98;40.16
23427;BME280;41148;45.420;10.952;2023-06-22T10:31:47;100860.38;;;31.94;40.74
23427;BME280;41148;45.420;10.952;2023-06-22T10:34:15;100856.09;;;31.92;40.36
23427;BME280;41148;45.420;10.952;2023-06-22T10:36:42;100845.16;;;31.51;41.31
23427;BME280;41148;45.420;10.952;2023-06-22T10:39:10;100845.84;;;31.61;41.32
23427;BME280;41148;45.420;10.952;2023-06-22T10:41:37;100858.38;;;31.80;42.24
23427;BME280;41148;45.420;10.952;2023-06-22T10:44:05;100850.75;;;31.98;41.96
23427;BME280;41148;45.420;10.952;2023-06-22T10:46:33;100851.22;;;32.10;41.91
23427;BME280;41148;45.420;10.952;2023-06-22T10:49:00;100846.78;;;32.01;42.35
23427;BME280;41148;45.420;10.952;2023-06-22T10:51:28;100846.38;;;32.12;42.31
23427;BME280;41148;45.420;10.952;2023-06-22T10:53:56;100839.41;;;32.32;41.94
23427;BME280;41148;45.420;10.952;2023-06-22T10:56:23;100847.34;;;32.35;42.06
23427;BME280;41148;45.420;10.952;2023-06-22T10:58:51;100842.03;;;32.26;42.11
23427;BME280;41148;45.420;10.952;2023-06-22T11:01:20;100842.00;;;32.34;42.00
23427;BME280;41148;45.420;10.952;2023-06-22T11:04:03;100849.88;;;32.45;40.54
23427;BME280;41148;45.420;10.952;2023-06-22T11:06:35;100842.88;;;32.34;41.48
23427;BME280;41148;45.420;10.952;2023-06-22T11:09:05;100842.19;;;32.24;40.56
23427;BME280;41148;45.420;10.952;2023-06-22T11:11:38;100839.94;;;32.28;41.35
23427;BME280;41148;45.420;10.952;2023-06-22T11:14:05;100853.91;;;32.34;41.53
23427;BME280;41148;45.420;10.952;2023-06-22T11:16:33;100849.66;;;32.15;41.51
23427;BME280;41148;45.420;10.952;2023-06-22T11:19:05;100841.19;;;32.17;41.57
23427;BME280;41148;45.420;10.952;2023-06-22T11:21:33;100847.00;;;32.30;40.38
23427;BME280;41148;45.420;10.952;2023-06-22T11:24:02;100836.66;;;32.32;40.28
23427;BME280;41148;45.420;10.952;2023-06-22T11:26:30;100833.22;;;32.22;40.57
23427;BME280;41148;45.420;10.952;2023-06-22T11:28:59;100829.59;;;32.30;40.53
23427;BME280;41148;45.420;10.952;2023-06-22T11:31:27;100835.56;;;32.41;39.29
23427;BME280;41148;45.420;10.952;2023-06-22T11:33:54;100831.31;;;32.31;39.39
23427;BME280;41148;45.420;10.952;2023-06-22T11:36:22;100828.03;;;31.96;40.27
23427;BME280;41148;45.420;10.952;2023-06-22T11:38:49;100825.81;;;32.31;39.48
23427;BME280;41148;45.420;10.952;2023-06-22T11:41:17;100812.47;;;32.42;38.31
23427;BME280;41148;45.420;10.952;2023-06-22T11:43:44;100809.91;;;32.41;39.51
23427;BME280;41148;45.420;10.952;2023-06-22T11:46:12;100804.50;;;32.47;39.53
23427;BME280;41148;45.420;10.952;2023-06-22T11:48:39;100798.28;;;32.54;40.04
23427;BME280;41148;45.420;10.952;2023-06-22T11:51:08;100804.47;;;32.56;40.74
23427;BME280;41148;45.420;10.952;2023-06-22T11:53:41;100798.19;;;32.62;41.09
23427;BME280;41148;45.420;10.952;2023-06-22T11:56:09;100789.06;;;32.61;40.95
23427;BME280;41148;45.420;10.952;2023-06-22T11:58:38;100784.97;;;32.57;41.55
23427;BME280;41148;45.420;10.952;2023-06-22T12:01:05;100787.78;;;32.49;41.49
23427;BME280;41148;45.420;10.952;2023-06-22T12:03:33;100788.63;;;32.50;40.93
23427;BME280;41148;45.420;10.952;2023-06-22T12:06:00;100783.44;;;32.55;40.98
23427;BME280;41148;45.420;10.952;2023-06-22T12:08:28;100776.22;;;32.54;40.34
23427;BME280;41148;45.420;10.952;2023-06-22T12:10:55;100772.94;;;32.50;40.87
23427;BME280;41148;45.420;10.952;2023-06-22T12:13:23;100770.53;;;32.55;40.75
23427;BME280;41148;45.420;10.952;2023-06-22T12:15:54;100767.00;;;32.61;40.81
23427;BME280;41148;45.420;10.952;2023-06-22T12:18:22;100761.47;;;32.61;40.11
23427;BME280;41148;45.420;10.952;2023-06-22T12:20:50;100762.09;;;32.71;40.61
23427;BME280;41148;45.420;10.952;2023-06-22T12:23:17;100760.31;;;32.79;40.34
23427;BME280;41148;45.420;10.952;2023-06-22T12:25:45;100750.81;;;32.81;39.98
23427;BME280;41148;45.420;10.952;2023-06-22T12:28:13;100746.59;;;32.70;40.54
23427;BME280;41148;45.420;10.952;2023-06-22T12:30:41;100743.16;;;32.68;40.46
23427;BME280;41148;45.420;10.952;2023-06-22T12:33:09;100750.19;;;32.71;40.91
23427;BME280;41148;45.420;10.952;2023-06-22T12:35:37;100748.28;;;32.71;39.58
23427;BME280;41148;45.420;10.952;2023-06-22T12:38:05;100741.56;;;32.74;40.12
23427;BME280;41148;45.420;10.952;2023-06-22T12:40:35;100733.84;;;32.69;40.13
23427;BME280;41148;45.420;10.952;2023-06-22T12:43:03;100730.00;;;32.56;41.34
23427;BME280;41148;45.420;10.952;2023-06-22T12:45:30;100722.53;;;32.79;40.91
23427;BME280;41148;45.420;10.952;2023-06-22T12:48:01;100726.41;;;32.70;41.35
23427;BME280;41148;45.420;10.952;2023-06-22T12:50:29;100724.63;;;32.62;41.32
23427;BME280;41148;45.420;10.952;2023-06-22T12:52:57;100721.56;;;32.95;39.94
23427;BME280;41148;45.420;10.952;2023-06-22T12:55:25;100718.06;;;33.01;40.05
23427;BME280;41148;45.420;10.952;2023-06-22T12:57:53;100729.13;;;33.16;39.83
23427;BME280;41148;45.420;10.952;2023-06-22T13:00:21;100721.69;;;33.01;39.50